Time;durP1;ratioP1;P1;durP2;ratioP2;P2;SDS_P1;SDS_P2;PMS_P1;PMS_P2;Temp;Humidity;BMP_temperature;BMP_pressure;BME280_temperature;BME280_humidity;BME280_pressure;Samples;Min_cycle;Max_cycle;Signal;HPM_P1;HPM_P2
2022/02/28 00:01:23;;;;;;;7.57;5.53;;;3.90;99.90;;;;;;5078067;28;20465;-52
2022/02/28 00:03:51;;;;;;;7.13;5.17;;;3.90;99.90;;;;;;5078540;28;20854;-55
2022/02/28 00:06:18;;;;;;;6.33;4.50;;;4.00;99.90;;;;;;5077739;28;20453;-52
2022/02/28 00:08:45;;;;;;;5.30;4.67;;;4.00;99.90;;;;;;5077987;28;20458;-53
2022/02/28 00:11:14;;;;;;;6.40;5.13;;;3.90;99.90;;;;;;5077395;28;20491;-52
2022/02/28 00:13:41;;;;;;;7.17;5.30;;;4.00;99.90;;;;;;5076895;28;20969;-51
2022/02/28 00:16:10;;;;;;;8.23;5.00;;;3.90;99.90;;;;;;5077347;28;20545;-54
2022/02/28 00:18:37;;;;;;;6.67;5.47;;;3.80;99.90;;;;;;5077218;28;20477;-53
2022/02/28 00:21:04;;;;;;;6.27;5.50;;;3.80;99.90;;;;;;5077411;28;20461;-51
2022/02/28 00:23:31;;;;;;;7.80;5.20;;;3.90;99.90;;;;;;5078013;28;20493;-56
2022/02/28 00:25:59;;;;;;;6.60;5.93;;;3.90;99.90;;;;;;5077867;28;20465;-53
2022/02/28 00:28:29;;;;;;;10.43;6.07;;;3.90;99.90;;;;;;5077055;28;20461;-53
2022/02/28 00:30:56;;;;;;;5.77;5.03;;;3.80;99.90;;;;;;5076881;28;20943;-50
2022/02/28 00:33:23;;;;;;;6.27;5.20;;;3.80;99.90;;;;;;5077813;28;20461;-51
2022/02/28 00:35:50;;;;;;;6.10;5.50;;;3.80;99.90;;;;;;5077920;28;20461;-55
2022/02/28 00:38:17;;;;;;;7.40;5.30;;;3.80;99.90;;;;;;5076111;28;20591;-55
2022/02/28 00:40:44;;;;;;;7.60;5.83;;;3.80;99.90;;;;;;5077415;28;20436;-55
2022/02/28 00:43:11;;;;;;;6.83;5.57;;;3.80;99.90;;;;;;5076194;28;20489;-56
2022/02/28 00:45:40;;;;;;;8.07;5.53;;;3.70;99.90;;;;;;5077244;28;20461;-55
2022/02/28 00:48:07;;;;;;;7.70;5.97;;;3.80;99.90;;;;;;5076917;28;20465;-56
2022/02/28 00:50:34;;;;;;;6.03;5.37;;;3.80;99.90;;;;;;5076959;28;20466;-57
2022/02/28 00:53:01;;;;;;;6.40;5.80;;;3.70;99.90;;;;;;5076972;28;20461;-53
2022/02/28 00:55:28;;;;;;;7.90;6.50;;;3.60;99.90;;;;;;5077513;28;20514;-57
2022/02/28 00:57:55;;;;;;;8.83;5.80;;;3.60;99.90;;;;;;5076921;28;20979;-57
2022/02/28 01:00:23;;;;;;;6.97;5.57;;;3.50;99.90;;;;;;5077018;28;20457;-56
2022/02/28 01:02:52;;;;;;;7.40;5.60;;;3.50;99.90;;;;;;5077133;28;20489;-53
2022/02/28 01:05:19;;;;;;;6.47;5.43;;;3.50;99.90;;;;;;5077278;28;20461;-54
2022/02/28 01:07:47;;;;;;;6.23;5.63;;;3.50;99.90;;;;;;5077520;28;20832;-52
2022/02/28 01:10:17;;;;;;;6.33;5.40;;;3.60;99.90;;;;;;5076056;28;20464;-57
2022/02/28 01:12:45;;;;;;;8.20;6.23;;;3.60;99.90;;;;;;5076906;28;20461;-58
2022/02/28 01:15:14;;;;;;;7.60;6.03;;;3.50;99.90;;;;;;5077049;28;20468;-50
2022/02/28 01:17:42;;;;;;;7.23;5.90;;;3.40;99.90;;;;;;5076526;28;20489;-50
2022/02/28 01:20:13;;;;;;;6.80;5.30;;;3.40;99.90;;;;;;5084975;28;20496;-56
2022/02/28 01:22:43;;;;;;;6.33;5.40;;;3.30;99.90;;;;;;5096412;28;20546;-53
2022/02/28 01:25:11;;;;;;;5.77;5.13;;;3.30;99.90;;;;;;5079179;28;20453;-50
2022/02/28 01:27:40;;;;;;;6.87;5.57;;;3.30;99.90;;;;;;5077239;28;20461;-53
2022/02/28 01:30:09;;;;;;;7.30;5.10;;;3.30;99.90;;;;;;5076302;28;20988;-53
2022/02/28 01:32:36;;;;;;;6.80;5.70;;;3.30;99.90;;;;;;5077135;28;20457;-52
2022/02/28 01:35:07;;;;;;;6.63;5.03;;;3.30;99.90;;;;;;5076718;28;20522;-53
2022/02/28 01:37:36;;;;;;;9.10;6.00;;;3.30;99.90;;;;;;5076877;28;20457;-55
2022/02/28 01:40:04;;;;;;;9.90;6.23;;;3.20;99.90;;;;;;5074645;28;20831;-58
2022/02/28 01:42:31;;;;;;;6.43;5.10;;;3.20;99.90;;;;;;5079120;28;20485;-55
2022/02/28 01:44:58;;;;;;;7.77;6.37;;;3.20;99.90;;;;;;5081250;28;20973;-55
2022/02/28 01:47:27;;;;;;;9.47;6.33;;;3.10;99.90;;;;;;5080776;28;20465;-56
2022/02/28 01:49:54;;;;;;;7.37;5.80;;;3.10;99.90;;;;;;5079502;28;20553;-57
2022/02/28 01:52:25;;;;;;;7.10;5.43;;;3.00;99.90;;;;;;5080895;28;20457;-58
2022/02/28 01:54:53;;;;;;;11.90;6.17;;;2.90;99.90;;;;;;5080957;28;20462;-56
2022/02/28 01:57:20;;;;;;;6.43;5.27;;;3.00;99.90;;;;;;5080155;28;20465;-54
2022/02/28 01:59:47;;;;;;;6.47;5.80;;;3.00;99.90;;;;;;5080239;28;20556;-55
2022/02/28 02:02:14;;;;;;;9.67;6.17;;;2.90;99.90;;;;;;5080375;28;20926;-57
2022/02/28 02:04:42;;;;;;;8.73;6.20;;;2.80;99.90;;;;;;5079768;28;20511;-50
2022/02/28 02:07:10;;;;;;;7.93;5.77;;;2.90;99.90;;;;;;5080036;28;20505;-56
2022/02/28 02:09:39;;;;;;;7.60;5.30;;;2.80;99.90;;;;;;5079328;28;20511;-53
2022/02/28 02:12:08;;;;;;;9.00;6.30;;;2.80;99.90;;;;;;5079910;28;20468;-54
2022/02/28 02:14:36;;;;;;;6.83;5.30;;;2.70;99.90;;;;;;5079869;28;20440;-57
2022/02/28 02:17:04;;;;;;;6.80;6.10;;;2.70;99.90;;;;;;5080999;28;20495;-55
2022/02/28 02:19:33;;;;;;;7.37;6.57;;;2.80;99.90;;;;;;5084791;28;20862;-53
2022/02/28 02:22:04;;;;;;;8.83;5.87;;;2.80;99.90;;;;;;5102140;28;20807;-54
2022/02/28 02:24:31;;;;;;;7.70;6.20;;;3.00;99.90;;;;;;5094426;28;20544;-52
2022/02/28 02:26:58;;;;;;;9.60;5.83;;;2.90;99.90;;;;;;5080991;28;20894;-50
2022/02/28 02:29:25;;;;;;;7.43;6.20;;;2.90;99.90;;;;;;5080441;28;20461;-51
2022/02/28 02:31:52;;;;;;;7.90;6.07;;;2.80;99.90;;;;;;5080006;28;20930;-54
2022/02/28 02:34:19;;;;;;;7.30;6.10;;;2.80;99.90;;;;;;5079435;28;20514;-56
2022/02/28 02:36:46;;;;;;;6.33;5.73;;;2.80;99.90;;;;;;5079482;28;20461;-55
2022/02/28 02:39:14;;;;;;;8.07;5.97;;;2.60;99.90;;;;;;5079784;28;20511;-53
2022/02/28 02:45:03;;;;;;;9.60;6.60;;;2.70;99.90;;;;;;5078877;28;20444;-55
2022/02/28 02:47:31;;;;;;;7.73;5.90;;;2.70;99.90;;;;;;5079739;28;20898;-53
2022/02/28 02:49:58;;;;;;;7.87;6.10;;;2.70;99.90;;;;;;5079761;28;20461;-52
2022/02/28 02:52:25;;;;;;;10.30;6.80;;;2.70;99.90;;;;;;5079562;28;20457;-54
2022/02/28 02:54:53;;;;;;;7.30;5.90;;;2.70;99.90;;;;;;5078832;28;20514;-51
2022/02/28 02:57:21;;;;;;;7.17;6.20;;;2.50;99.90;;;;;;5078923;28;20590;-50
2022/02/28 02:59:50;;;;;;;7.27;6.07;;;2.40;99.90;;;;;;5079619;28;20513;-51
2022/02/28 03:02:18;;;;;;;9.33;6.30;;;2.50;99.90;;;;;;5079866;28;20461;-56
2022/02/28 03:04:45;;;;;;;7.10;6.40;;;2.50;99.90;;;;;;5079134;28;20508;-53
2022/02/28 03:07:16;;;;;;;6.83;5.90;;;2.60;99.90;;;;;;5078822;28;20468;-55
2022/02/28 03:09:44;;;;;;;9.20;6.50;;;2.60;99.90;;;;;;5079318;28;20472;-58
2022/02/28 03:12:13;;;;;;;7.40;5.50;;;2.50;99.90;;;;;;5059070;28;20462;-54
2022/02/28 03:14:44;;;;;;;7.20;5.97;;;2.50;99.90;;;;;;5059968;28;20469;-53
2022/02/28 03:17:11;;;;;;;8.10;6.50;;;2.60;99.90;;;;;;5069313;28;20988;-55
2022/02/28 03:19:38;;;;;;;7.53;5.80;;;2.60;99.90;;;;;;5085238;28;20455;-55
2022/02/28 03:22:05;;;;;;;7.23;5.60;;;2.60;99.90;;;;;;5085795;28;20465;-56
2022/02/28 03:24:32;;;;;;;9.03;6.10;;;2.50;99.90;;;;;;5080214;28;20493;-56
2022/02/28 03:27:00;;;;;;;6.27;5.67;;;2.40;99.90;;;;;;5079918;28;20457;-58
2022/02/28 03:29:28;;;;;;;8.87;6.43;;;2.30;99.90;;;;;;5080419;28;20465;-55
2022/02/28 03:31:55;;;;;;;8.10;6.30;;;2.20;99.90;;;;;;5080135;28;20818;-52
2022/02/28 03:34:22;;;;;;;12.70;7.27;;;2.20;99.90;;;;;;5080454;28;20468;-54
2022/02/28 03:36:51;;;;;;;8.43;6.63;;;2.10;99.90;;;;;;5079978;28;20461;-55
2022/02/28 03:39:18;;;;;;;5.97;5.33;;;2.00;99.90;;;;;;5079578;28;20895;-58
2022/02/28 03:41:45;;;;;;;8.30;6.20;;;1.80;99.90;;;;;;5079264;28;20899;-53
2022/02/28 03:44:12;;;;;;;7.80;6.47;;;2.00;99.90;;;;;;5079173;28;20489;-53
2022/02/28 03:46:40;;;;;;;10.77;6.23;;;2.00;99.90;;;;;;5079978;28;20465;-53
2022/02/28 03:49:07;;;;;;;10.13;6.30;;;2.00;99.90;;;;;;5079881;28;20465;-55
2022/02/28 03:51:35;;;;;;;6.70;5.90;;;1.90;99.90;;;;;;5080236;28;20468;-58
2022/02/28 03:54:02;;;;;;;7.47;6.30;;;2.00;99.90;;;;;;5078695;28;20515;-54
2022/02/28 03:56:29;;;;;;;11.43;8.40;;;2.00;99.90;;;;;;5079655;28;20461;-56
2022/02/28 03:58:56;;;;;;;9.33;6.90;;;2.00;99.90;;;;;;5079813;28;20462;-57
2022/02/28 04:01:23;;;;;;;8.83;6.87;;;2.10;99.90;;;;;;5079171;28;20767;-56
2022/02/28 04:03:51;;;;;;;7.03;6.10;;;2.20;99.90;;;;;;5080126;28;20496;-56
2022/02/28 04:06:18;;;;;;;8.70;6.53;;;2.20;99.90;;;;;;5078085;28;20466;-58
2022/02/28 04:08:46;;;;;;;7.53;5.57;;;2.40;99.90;;;;;;5078855;28;20453;-56
2022/02/28 04:11:14;;;;;;;7.23;5.80;;;2.40;99.90;;;;;;5078505;28;20469;-54
2022/02/28 04:13:41;;;;;;;7.80;6.17;;;2.50;99.90;;;;;;5078828;28;20458;-56
2022/02/28 04:16:08;;;;;;;12.43;7.13;;;2.50;99.90;;;;;;5078568;28;20465;-58
2022/02/28 04:18:35;;;;;;;9.27;7.50;;;2.60;99.90;;;;;;5078717;28;20539;-57
2022/02/28 04:21:03;;;;;;;8.20;6.40;;;2.60;99.90;;;;;;5079133;28;20473;-55
2022/02/28 04:23:31;;;;;;;7.70;6.13;;;2.50;99.90;;;;;;5079468;28;21003;-52
2022/02/28 04:26:01;;;;;;;10.33;6.27;;;2.50;99.90;;;;;;5078891;28;20583;-54
2022/02/28 04:28:28;;;;;;;7.70;6.90;;;2.50;99.90;;;;;;5078908;28;20943;-56
2022/02/28 04:30:55;;;;;;;7.67;6.87;;;2.50;99.90;;;;;;5078227;28;20461;-56
2022/02/28 04:33:22;;;;;;;7.60;6.43;;;2.50;99.90;;;;;;5078811;28;20461;-57
2022/02/28 04:35:49;;;;;;;7.60;6.63;;;2.40;99.90;;;;;;5078619;28;20468;-56
2022/02/28 04:38:18;;;;;;;7.27;6.13;;;2.30;99.90;;;;;;5078487;28;20473;-56
2022/02/28 04:40:45;;;;;;;8.13;6.40;;;2.10;99.90;;;;;;5078314;28;20458;-56
2022/02/28 04:43:12;;;;;;;9.43;5.97;;;2.00;99.90;;;;;;5078261;28;20917;-56
2022/02/28 04:45:40;;;;;;;8.80;6.00;;;2.10;99.90;;;;;;5078493;28;20462;-55
2022/02/28 04:48:07;;;;;;;9.80;6.40;;;2.10;99.90;;;;;;5076266;28;20466;-56
2022/02/28 04:50:34;;;;;;;7.20;6.27;;;2.20;99.90;;;;;;5077880;28;20519;-57
2022/02/28 04:53:01;;;;;;;11.00;6.67;;;2.30;99.90;;;;;;5077229;28;20461;-57
2022/02/28 04:55:30;;;;;;;8.20;6.77;;;2.30;99.90;;;;;;5078262;28;20461;-57
2022/02/28 04:57:57;;;;;;;8.10;6.23;;;2.20;99.90;;;;;;5077814;28;20465;-57
2022/02/28 05:00:24;;;;;;;8.53;6.27;;;2.20;99.90;;;;;;5077507;28;20457;-53
2022/02/28 05:02:51;;;;;;;10.20;6.70;;;2.20;99.90;;;;;;5078037;28;20469;-56
2022/02/28 05:05:18;;;;;;;9.13;6.90;;;2.10;99.90;;;;;;5078399;28;20797;-58
2022/02/28 05:07:46;;;;;;;8.17;6.83;;;2.10;99.90;;;;;;5078322;28;20501;-56
2022/02/28 05:10:13;;;;;;;9.20;7.03;;;2.30;99.90;;;;;;5078863;28;20461;-57
2022/02/28 05:12:41;;;;;;;9.87;7.00;;;2.30;99.90;;;;;;5077802;28;20473;-53
2022/02/28 05:15:09;;;;;;;8.30;6.43;;;2.30;99.90;;;;;;5078454;28;20464;-57
2022/02/28 05:17:38;;;;;;;9.70;6.80;;;2.20;99.90;;;;;;5077644;28;20489;-58
2022/02/28 05:20:06;;;;;;;10.23;7.20;;;2.20;99.90;;;;;;5078526;28;20462;-58
2022/02/28 05:22:32;;;;;;;10.43;7.40;;;2.10;99.90;;;;;;5078207;28;20465;-56
2022/02/28 05:25:00;;;;;;;7.50;6.20;;;2.10;99.90;;;;;;5077116;28;20486;-57
2022/02/28 05:27:27;;;;;;;8.47;6.27;;;2.10;99.90;;;;;;5078066;28;20777;-53
2022/02/28 05:29:55;;;;;;;7.33;6.50;;;2.10;99.90;;;;;;5078185;28;20461;-58
2022/02/28 05:32:22;;;;;;;9.40;7.23;;;2.10;99.90;;;;;;5078165;28;20484;-58
2022/02/28 05:34:49;;;;;;;6.90;6.20;;;2.10;99.90;;;;;;5077635;28;20461;-58
2022/02/28 05:37:16;;;;;;;9.00;6.50;;;2.10;99.90;;;;;;5078618;28;20525;-56
2022/02/28 05:39:43;;;;;;;22.57;15.07;;;2.10;99.90;;;;;;5087760;28;20476;-57
2022/02/28 05:42:10;;;;;;;12.40;8.90;;;2.10;99.90;;;;;;5097343;28;20456;-57
2022/02/28 05:44:37;;;;;;;10.63;8.37;;;2.20;99.90;;;;;;5090018;28;20558;-55
2022/02/28 05:47:06;;;;;;;11.03;8.23;;;2.10;99.90;;;;;;5077754;28;20495;-58
2022/02/28 05:49:33;;;;;;;11.17;7.93;;;2.10;99.90;;;;;;5075917;28;20535;-58
2022/02/28 05:52:00;;;;;;;9.23;7.07;;;2.10;99.90;;;;;;5078007;28;20453;-55
2022/02/28 05:54:27;;;;;;;11.57;8.50;;;2.20;99.90;;;;;;5077064;28;20902;-57
2022/02/28 05:56:55;;;;;;;7.83;7.00;;;2.10;99.90;;;;;;5076809;28;20527;-55
2022/02/28 05:59:22;;;;;;;13.53;7.00;;;1.90;99.90;;;;;;5077400;28;20507;-57
2022/02/28 06:01:52;;;;;;;8.40;7.60;;;1.80;99.90;;;;;;5077887;28;20511;-58
2022/02/28 06:04:20;;;;;;;10.93;7.93;;;1.90;99.90;;;;;;5077429;28;20493;-58
2022/02/28 06:06:50;;;;;;;11.67;10.37;;;1.90;99.90;;;;;;5076853;28;20461;-57
2022/02/28 06:09:17;;;;;;;9.93;8.80;;;1.90;99.90;;;;;;5077387;28;20457;-56
2022/02/28 06:11:44;;;;;;;10.60;7.67;;;1.90;99.90;;;;;;5057836;28;20796;-56
2022/02/28 06:14:11;;;;;;;12.90;8.53;;;1.90;99.90;;;;;;5074548;28;20461;-57
2022/02/28 06:16:39;;;;;;;9.60;7.53;;;1.80;99.90;;;;;;5077011;28;20866;-52
2022/02/28 06:19:06;;;;;;;11.10;7.70;;;1.80;99.90;;;;;;5076042;28;20579;-58
2022/02/28 06:21:34;;;;;;;9.53;8.50;;;1.70;99.90;;;;;;5071857;28;20465;-55
2022/02/28 06:24:01;;;;;;;11.40;8.00;;;1.60;99.90;;;;;;5077540;28;20546;-58
2022/02/28 06:26:28;;;;;;;8.40;7.20;;;1.70;99.90;;;;;;5076515;28;20511;-58
2022/02/28 06:28:55;;;;;;;8.57;7.67;;;1.80;99.90;;;;;;5076373;28;20484;-58
2022/02/28 06:31:22;;;;;;;8.57;7.37;;;1.80;99.90;;;;;;5080269;28;20440;-60
2022/02/28 06:33:49;;;;;;;9.00;7.40;;;1.70;99.90;;;;;;5080441;28;20465;-60
2022/02/28 06:36:16;;;;;;;9.33;7.77;;;1.50;99.90;;;;;;5080399;28;20863;-60
2022/02/28 06:38:45;;;;;;;13.90;7.57;;;1.40;99.90;;;;;;5079367;28;20465;-58
2022/02/28 06:41:12;;;;;;;14.20;7.97;;;1.40;99.90;;;;;;5078983;28;20469;-60
2022/02/28 06:43:39;;;;;;;11.60;9.20;;;1.40;99.90;;;;;;5078369;28;20499;-60
2022/02/28 06:46:06;;;;;;;12.07;8.47;;;1.40;99.90;;;;;;5079823;28;20471;-60
2022/02/28 06:48:33;;;;;;;8.90;7.57;;;1.40;99.90;;;;;;5078577;28;20469;-60
2022/02/28 06:51:00;;;;;;;8.50;6.57;;;1.40;99.90;;;;;;5078999;28;20457;-57
2022/02/28 06:53:27;;;;;;;9.27;7.10;;;1.50;99.90;;;;;;5078340;28;20465;-59
2022/02/28 06:55:56;;;;;;;9.97;8.53;;;1.70;99.90;;;;;;5080062;28;20511;-60
2022/02/28 06:58:23;;;;;;;9.83;8.00;;;1.70;99.90;;;;;;5079622;28;20560;-58
2022/02/28 07:00:51;;;;;;;10.17;7.90;;;1.90;99.90;;;;;;5079879;28;20534;-60
2022/02/28 07:03:18;;;;;;;10.60;7.10;;;2.00;99.90;;;;;;5079550;28;20477;-60
2022/02/28 07:05:49;;;;;;;8.97;7.07;;;2.10;99.90;;;;;;5079692;28;20965;-59
2022/02/28 07:08:20;;;;;;;8.50;7.43;;;2.10;99.90;;;;;;5080008;28;20485;-55
2022/02/28 07:10:48;;;;;;;9.57;7.50;;;2.20;99.90;;;;;;5079825;28;20469;-56
2022/02/28 07:13:17;;;;;;;9.83;7.43;;;2.20;99.90;;;;;;5079619;28;20758;-56
2022/02/28 07:15:45;;;;;;;9.77;6.87;;;2.30;99.90;;;;;;5079589;28;20463;-57
2022/02/28 07:18:13;;;;;;;9.70;7.90;;;2.40;99.90;;;;;;5079004;28;20507;-60
2022/02/28 07:20:43;;;;;;;9.43;7.23;;;2.50;99.90;;;;;;5079152;28;20538;-59
2022/02/28 07:23:12;;;;;;;8.80;7.20;;;2.60;99.90;;;;;;5064100;28;20453;-59
2022/02/28 07:25:39;;;;;;;9.60;6.80;;;2.70;99.90;;;;;;5078720;28;20931;-60
2022/02/28 07:28:06;;;;;;;7.70;6.40;;;2.80;99.90;;;;;;5078238;28;20468;-60
2022/02/28 07:30:38;;;;;;;8.73;7.50;;;2.90;99.90;;;;;;5076692;28;20462;-60
2022/02/28 07:33:05;;;;;;;8.93;6.87;;;3.10;99.90;;;;;;5077143;28;20511;-60
2022/02/28 07:35:33;;;;;;;8.73;7.40;;;3.40;99.90;;;;;;5076989;28;20458;-59
2022/02/28 07:38:00;;;;;;;10.80;7.60;;;3.60;99.90;;;;;;5075031;28;20489;-60
2022/02/28 07:40:30;;;;;;;8.67;7.20;;;3.90;99.90;;;;;;5075438;28;20914;-61
2022/02/28 07:42:57;;;;;;;8.93;7.60;;;4.10;99.90;;;;;;5075825;28;20506;-61
2022/02/28 07:45:24;;;;;;;10.57;7.63;;;4.30;99.90;;;;;;5076553;28;20543;-53
2022/02/28 07:47:53;;;;;;;9.13;8.03;;;4.60;99.90;;;;;;5077143;28;20464;-58
2022/02/28 07:50:20;;;;;;;8.77;7.03;;;4.80;99.90;;;;;;5076481;28;20467;-56
2022/02/28 07:52:47;;;;;;;9.67;6.67;;;5.10;99.90;;;;;;5076541;28;20536;-55
2022/02/28 07:55:14;;;;;;;10.10;7.90;;;5.40;99.90;;;;;;5076357;28;20461;-59
2022/02/28 07:57:41;;;;;;;9.63;7.70;;;5.40;99.90;;;;;;5076769;28;20890;-57
2022/02/28 08:00:12;;;;;;;10.53;8.70;;;5.60;99.90;;;;;;5076197;28;20573;-53
2022/02/28 08:02:39;;;;;;;11.50;8.40;;;5.70;99.90;;;;;;5076020;28;20472;-53
2022/02/28 08:05:12;;;;;;;14.50;10.30;;;5.70;99.90;;;;;;5075803;28;20489;-57
2022/02/28 08:07:40;;;;;;;10.30;7.83;;;5.90;99.90;;;;;;5076641;28;20468;-57
2022/02/28 08:10:08;;;;;;;10.80;8.00;;;6.20;99.90;;;;;;5076842;28;20453;-57
2022/02/28 08:12:35;;;;;;;11.13;7.90;;;6.30;99.90;;;;;;5075286;28;20461;-56
2022/02/28 08:15:03;;;;;;;9.17;7.40;;;6.40;99.90;;;;;;5075843;28;20453;-56
2022/02/28 08:17:30;;;;;;;9.37;7.93;;;6.60;99.90;;;;;;5073738;28;20949;-58
2022/02/28 08:19:59;;;;;;;9.87;8.23;;;6.70;99.90;;;;;;5077931;28;20581;-54
2022/02/28 08:22:27;;;;;;;10.27;8.30;;;6.80;99.90;;;;;;5075322;28;20542;-59
2022/02/28 08:24:58;;;;;;;9.70;7.57;;;6.90;99.90;;;;;;5076027;28;21010;-59
2022/02/28 08:27:27;;;;;;;9.67;7.30;;;7.30;99.90;;;;;;5075830;28;20476;-60
2022/02/28 08:29:55;;;;;;;11.90;7.93;;;7.40;99.90;;;;;;5076312;28;20571;-53
2022/02/28 08:32:22;;;;;;;11.77;8.87;;;7.60;99.90;;;;;;5075517;28;20519;-60
2022/02/28 08:34:49;;;;;;;9.20;8.27;;;7.60;99.90;;;;;;5075680;28;20511;-57
2022/02/28 08:37:16;;;;;;;10.23;8.63;;;7.80;99.90;;;;;;5075154;28;20519;-59
2022/02/28 08:39:44;;;;;;;8.07;7.27;;;7.90;99.90;;;;;;5075905;28;20457;-57
2022/02/28 08:42:14;;;;;;;11.57;9.70;;;8.10;99.90;;;;;;5072992;28;20457;-56
2022/02/28 08:44:43;;;;;;;9.33;8.10;;;8.20;99.90;;;;;;5075943;28;20493;-58
2022/02/28 08:47:10;;;;;;;9.67;7.80;;;8.40;99.90;;;;;;5072313;28;20568;-55
2022/02/28 08:49:37;;;;;;;10.70;9.60;;;8.50;99.90;;;;;;5075590;28;20519;-59
2022/02/28 08:52:06;;;;;;;9.47;8.23;;;8.60;99.90;;;;;;5074819;28;20560;-53
2022/02/28 08:54:34;;;;;;;10.20;7.87;;;8.70;99.90;;;;;;5074941;28;20462;-54
2022/02/28 08:57:03;;;;;;;9.73;8.27;;;8.70;99.90;;;;;;5074861;28;20466;-51
2022/02/28 08:59:30;;;;;;;10.03;8.20;;;8.90;99.90;;;;;;5072801;28;20465;-57
2022/02/28 09:01:58;;;;;;;10.03;8.97;;;8.90;99.90;;;;;;5075115;28;20465;-56
2022/02/28 09:04:28;;;;;;;9.63;8.57;;;9.00;99.90;;;;;;5073824;28;20501;-57
2022/02/28 09:06:55;;;;;;;9.30;8.20;;;8.80;99.90;;;;;;5070454;28;20457;-55
2022/02/28 09:09:24;;;;;;;9.67;8.30;;;9.20;99.90;;;;;;5074821;28;20469;-59
2022/02/28 09:11:51;;;;;;;9.40;8.40;;;9.50;99.90;;;;;;5073181;28;20475;-55
2022/02/28 09:14:21;;;;;;;10.10;8.63;;;9.50;99.90;;;;;;5074837;28;20468;-54
2022/02/28 09:16:50;;;;;;;9.67;8.43;;;9.60;99.90;;;;;;5074857;28;20517;-53
2022/02/28 09:19:17;;;;;;;12.10;9.33;;;9.40;99.90;;;;;;5073686;28;20465;-56
2022/02/28 09:21:45;;;;;;;11.10;8.83;;;9.20;99.90;;;;;;5075083;28;20466;-56
2022/02/28 09:24:12;;;;;;;8.70;7.80;;;9.30;99.90;;;;;;5072358;28;20549;-57
2022/02/28 09:26:40;;;;;;;12.10;8.37;;;9.50;99.90;;;;;;5075439;28;21052;-59
2022/02/28 09:29:07;;;;;;;8.60;7.70;;;9.60;99.90;;;;;;5074930;28;20777;-57
2022/02/28 09:31:35;;;;;;;13.63;9.10;;;9.60;99.90;;;;;;5074725;28;20465;-56
2022/02/28 09:34:05;;;;;;;10.53;9.37;;;9.80;99.90;;;;;;5073740;28;20829;-55
2022/02/28 09:36:35;;;;;;;9.97;8.63;;;10.00;99.90;;;;;;5072181;28;20465;-58
2022/02/28 09:39:02;;;;;;;9.30;8.40;;;9.80;99.90;;;;;;5073582;28;20461;-58
2022/02/28 09:41:29;;;;;;;9.57;7.70;;;9.90;99.90;;;;;;5074453;28;20443;-58
2022/02/28 09:43:57;;;;;;;10.00;8.63;;;10.20;99.90;;;;;;5074459;28;20465;-59
2022/02/28 09:46:24;;;;;;;12.23;10.00;;;10.70;99.90;;;;;;5074065;28;20949;-58
2022/02/28 09:48:54;;;;;;;14.60;11.20;;;10.90;99.90;;;;;;5071992;28;20472;-60
2022/02/28 09:51:24;;;;;;;11.10;9.00;;;11.10;99.90;;;;;;5072986;28;20469;-55
2022/02/28 09:53:52;;;;;;;10.13;8.77;;;10.90;99.90;;;;;;5072206;28;20461;-52
2022/02/28 09:56:20;;;;;;;9.57;8.57;;;10.40;99.90;;;;;;5074689;28;20510;-58
2022/02/28 09:58:51;;;;;;;10.30;9.20;;;10.10;99.90;;;;;;5075251;28;20536;-54
2022/02/28 10:01:18;;;;;;;11.53;9.23;;;10.00;99.90;;;;;;5072802;28;20468;-53
2022/02/28 10:03:45;;;;;;;9.40;8.50;;;9.80;99.90;;;;;;5076370;28;20511;-53
2022/02/28 10:06:16;;;;;;;10.20;8.80;;;9.80;99.90;;;;;;5076081;28;20922;-55
2022/02/28 10:08:45;;;;;;;9.17;8.23;;;10.10;99.90;;;;;;5078523;28;20468;-53
2022/02/28 10:11:26;;;;;;;12.30;8.40;;;10.10;99.90;;;;;;5074428;28;20493;-53
2022/02/28 10:13:56;;;;;;;10.73;8.10;;;9.90;99.90;;;;;;5078556;28;20457;-57
2022/02/28 10:16:34;;;;;;;11.03;9.17;;;9.90;99.90;;;;;;5076785;28;20452;-55
2022/02/28 10:19:04;;;;;;;11.17;8.00;;;10.20;99.90;;;;;;5076877;28;20453;-60
2022/02/28 10:21:44;;;;;;;10.47;9.07;;;10.60;99.90;;;;;;5081377;28;20825;-54
2022/02/28 10:24:19;;;;;;;10.00;8.70;;;10.90;99.90;;;;;;5075835;28;20457;-52
2022/02/28 10:26:47;;;;;;;8.40;7.60;;;11.00;99.90;;;;;;5076949;28;20546;-54
2022/02/28 10:29:20;;;;;;;8.60;7.70;;;11.10;99.90;;;;;;5078509;28;20461;-57
2022/02/28 10:31:48;;;;;;;7.90;7.07;;;11.20;99.90;;;;;;5078350;28;20458;-53
2022/02/28 10:34:19;;;;;;;10.67;9.57;;;11.50;99.90;;;;;;5080056;28;20465;-53
2022/02/28 10:37:04;;;;;;;8.70;7.73;;;11.20;99.90;;;;;;5078631;28;20462;-55
2022/02/28 10:39:33;;;;;;;11.63;8.50;;;11.20;99.90;;;;;;5076485;28;20457;-54
2022/02/28 10:42:05;;;;;;;8.50;7.70;;;11.20;99.90;;;;;;5078694;28;20552;-56
2022/02/28 10:44:37;;;;;;;8.23;7.40;;;11.50;99.90;;;;;;5076838;28;20507;-59
2022/02/28 10:47:06;;;;;;;8.27;7.33;;;11.20;99.90;;;;;;5078612;28;20963;-58
2022/02/28 10:49:35;;;;;;;9.93;8.27;;;11.20;99.90;;;;;;5077579;28;20453;-59
2022/02/28 10:52:07;;;;;;;10.40;7.90;;;11.10;99.90;;;;;;5079426;28;20518;-55
2022/02/28 10:54:37;;;;;;;9.27;7.50;;;11.30;99.90;;;;;;5079244;28;20899;-57
2022/02/28 10:57:07;;;;;;;9.40;8.07;;;11.20;99.90;;;;;;5078285;28;20493;-53
2022/02/28 10:59:41;;;;;;;8.03;7.13;;;11.70;99.90;;;;;;5076385;28;20457;-54
2022/02/28 11:02:08;;;;;;;10.77;8.43;;;11.60;99.90;;;;;;5078047;28;20457;-56
2022/02/28 11:04:38;;;;;;;8.73;7.60;;;11.60;99.90;;;;;;5075433;28;20453;-58
2022/02/28 11:07:11;;;;;;;8.93;8.03;;;11.70;99.90;;;;;;5077946;28;20441;-56
2022/02/28 11:09:40;;;;;;;8.80;7.90;;;11.70;99.90;;;;;;5077635;28;20466;-56
2022/02/28 11:12:24;;;;;;;11.03;9.10;;;11.70;99.90;;;;;;5077820;28;20476;-55
2022/02/28 11:14:53;;;;;;;9.37;8.00;;;12.10;99.90;;;;;;5078299;28;20464;-54
2022/02/28 11:17:23;;;;;;;8.33;7.50;;;12.00;99.90;;;;;;5078612;28;20551;-56
2022/02/28 11:19:51;;;;;;;8.53;7.47;;;12.20;99.90;;;;;;5079299;28;20496;-59
2022/02/28 11:22:20;;;;;;;8.97;8.13;;;12.10;99.90;;;;;;5079606;28;20882;-59
2022/02/28 11:24:47;;;;;;;9.60;7.97;;;12.10;99.90;;;;;;5079023;28;20808;-59
2022/02/28 11:27:15;;;;;;;9.10;8.23;;;12.50;99.90;;;;;;5079435;28;20921;-57
2022/02/28 11:29:43;;;;;;;9.40;8.50;;;12.60;99.90;;;;;;5079546;28;20477;-56
2022/02/28 11:32:11;;;;;;;9.83;8.17;;;12.50;99.90;;;;;;5078932;28;20488;-53
2022/02/28 11:34:39;;;;;;;8.70;7.80;;;12.30;99.90;;;;;;5078862;28;20464;-50
2022/02/28 11:37:08;;;;;;;10.03;7.30;;;12.30;99.90;;;;;;5078631;28;20522;-58
2022/02/28 11:39:40;;;;;;;9.00;8.20;;;12.60;99.90;;;;;;5078722;28;20484;-56
2022/02/28 11:42:09;;;;;;;9.70;8.70;;;13.10;99.90;;;;;;5079161;28;20465;-56
2022/02/28 11:44:38;;;;;;;8.47;7.70;;;13.10;99.90;;;;;;5078530;28;20515;-54
2022/02/28 11:47:13;;;;;;;8.80;7.90;;;12.90;99.90;;;;;;5078559;28;20489;-53
2022/02/28 11:49:43;;;;;;;7.90;7.10;;;12.60;99.90;;;;;;5079040;28;20465;-55
2022/02/28 11:52:30;;;;;;;8.83;7.93;;;12.80;99.90;;;;;;5078647;28;20767;-54
2022/02/28 11:55:02;;;;;;;8.50;7.60;;;12.90;99.90;;;;;;5078305;28;20465;-53
2022/02/28 11:57:51;;;;;;;10.17;8.20;;;13.20;99.90;;;;;;5078207;28;20461;-53
2022/02/28 12:00:40;;;;;;;7.90;7.10;;;13.40;99.90;;;;;;5078819;28;20465;-58
2022/02/28 12:03:16;;;;;;;9.13;8.23;;;13.50;99.90;;;;;;5078087;28;20461;-57
2022/02/28 12:05:43;;;;;;;9.03;8.13;;;13.40;99.90;;;;;;5078250;28;20489;-54
2022/02/28 12:08:12;;;;;;;9.63;8.50;;;13.60;99.90;;;;;;5078366;28;20468;-54
2022/02/28 12:10:43;;;;;;;9.97;8.47;;;13.40;99.90;;;;;;5078185;28;20560;-52
2022/02/28 12:13:11;;;;;;;10.30;8.37;;;13.40;99.90;;;;;;5076670;28;20759;-52
2022/02/28 12:15:37;;;;;;;8.93;8.03;;;13.60;99.90;;;;;;5076339;28;20503;-52
2022/02/28 12:18:12;;;;;;;8.83;7.70;;;13.60;99.90;;;;;;5075878;28;20539;-51
2022/02/28 12:20:47;;;;;;;12.03;9.20;;;13.60;99.90;;;;;;5077872;28;20527;-52
2022/02/28 12:23:28;;;;;;;8.00;7.30;;;13.70;99.90;;;;;;5078238;28;20476;-55
2022/02/28 12:26:08;;;;;;;8.93;8.03;;;13.80;99.90;;;;;;5077100;28;20500;-56
2022/02/28 12:28:44;;;;;;;9.43;7.83;;;14.10;99.90;;;;;;5076394;28;20878;-57
2022/02/28 12:31:13;;;;;;;12.37;8.47;;;13.70;99.90;;;;;;5077897;28;20500;-51
2022/02/28 12:34:00;;;;;;;9.67;8.77;;;13.80;99.90;;;;;;5077736;28;20898;-54
2022/02/28 12:36:30;;;;;;;9.53;8.67;;;14.20;99.90;;;;;;5077531;28;20934;-54
2022/02/28 12:38:59;;;;;;;11.77;9.70;;;14.20;99.90;;;;;;5077667;28;20471;-50
2022/02/28 12:41:32;;;;;;;8.97;7.93;;;14.60;99.90;;;;;;5077650;28;20465;-55
2022/02/28 12:44:02;;;;;;;9.10;8.17;;;14.70;99.90;;;;;;5077386;28;20468;-56
2022/02/28 12:46:35;;;;;;;11.17;10.07;;;14.70;99.90;;;;;;5077854;28;20504;-51
2022/02/28 12:49:03;;;;;;;9.53;8.63;;;14.70;99.90;;;;;;5077600;28;20510;-57
2022/02/28 12:51:33;;;;;;;11.67;8.57;;;15.00;99.90;;;;;;5077467;28;20812;-55
2022/02/28 12:54:03;;;;;;;9.83;8.40;;;15.20;99.90;;;;;;5077461;28;20472;-54
2022/02/28 12:56:32;;;;;;;10.47;8.87;;;15.00;99.90;;;;;;5077013;28;20465;-52
2022/02/28 12:59:02;;;;;;;11.10;9.30;;;15.00;99.90;;;;;;5077248;28;20508;-56
2022/02/28 13:01:32;;;;;;;10.00;9.00;;;14.90;99.90;;;;;;5077508;28;20499;-54